Terminal Aerodrome Forecast
Issued by NWS Wilmington, OH

Current Version | Previous Version | Text Only | Print | Product List | Glossary Off
Versions: 1 2 3 4 5 6 7 8 9 10 11 12 13 14 15 16 17

000
FTUS41 KILN 231619 AAA
TAFDAY
TAF AMD
KDAY 231619Z 2316/2412 17012KT P6SM -SHRA OVC025
     FM232000 20012G20KT P6SM VCSH OVC035
     FM232300 25012KT P6SM VCSH OVC015
     FM240600 21010KT P6SM VCSH BKN025=

USA.gov is the U.S. government's official web portal to all federal, state and local government web resources and services.